createdAt,value
2022-12-19T00:01:34.829Z,95116.41
2022-12-19T00:04:08.104Z,95117.41
2022-12-19T00:06:37.403Z,95110.56
2022-12-19T00:09:05.366Z,95107.78
2022-12-19T00:11:32.755Z,95107.78
2022-12-19T00:13:59.856Z,95103.34
2022-12-19T00:16:28.756Z,95100.34
2022-12-19T00:18:58.495Z,95110.38
2022-12-19T00:21:28.132Z,95110.38
2022-12-19T00:23:55.311Z,95104.34
2022-12-19T00:26:23.692Z,95109.38
2022-12-19T00:29:14.296Z,95100.53
2022-12-19T00:31:41.413Z,95106.78
2022-12-19T00:34:09.301Z,95106.56
2022-12-19T00:36:35.957Z,95112.56
2022-12-19T00:39:08.131Z,95118.56
2022-12-19T00:41:40.084Z,95118.38
2022-12-19T00:44:14.228Z,95121.97
2022-12-19T00:46:41.155Z,95126.19
2022-12-19T00:49:08.088Z,95127.41
2022-12-19T00:51:37.089Z,95121.38
2022-12-19T00:54:05.331Z,95111.34
2022-12-19T00:56:37.732Z,95112.13
2022-12-19T00:59:07.126Z,95110.91
2022-12-19T01:01:38.159Z,95121.13
2022-12-19T01:06:53.997Z,95112.50
2022-12-19T01:09:24.786Z,95114.53
2022-12-19T01:12:10.404Z,95129.41
2022-12-19T01:14:37.061Z,95128.56
2022-12-19T01:17:03.837Z,95126.94
2022-12-19T01:19:30.512Z,95109.06
2022-12-19T01:21:57.155Z,95114.88
2022-12-19T01:24:24.619Z,95117.50
2022-12-19T01:26:51.312Z,95118.91
2022-12-19T01:29:17.967Z,95109.25
2022-12-19T01:31:44.694Z,95099.03
2022-12-19T01:34:11.658Z,95098.81
2022-12-19T01:36:40.167Z,95095.47
2022-12-19T01:39:07.780Z,95094.00
2022-12-19T01:41:35.416Z,95065.91
2022-12-19T01:44:07.277Z,95038.97
2022-12-19T01:46:47.775Z,95033.34
2022-12-19T01:49:29.118Z,95051.09
2022-12-19T01:51:58.801Z,95073.38
2022-12-19T01:54:39.943Z,95098.47
2022-12-19T01:57:13.707Z,95101.88
2022-12-19T01:59:45.989Z,95105.69
2022-12-19T02:02:48.728Z,95093.84
2022-12-19T02:05:16.184Z,95081.75
2022-12-19T02:07:44.149Z,95099.84
2022-12-19T02:10:11.417Z,95108.28
2022-12-19T02:12:41.601Z,95115.69
2022-12-19T02:15:10.871Z,95104.03
2022-12-19T02:17:52.617Z,95102.63
2022-12-19T02:20:39.423Z,95087.16
2022-12-19T02:23:18.397Z,95094.97
2022-12-19T02:26:29.459Z,95074.91
2022-12-19T02:28:56.279Z,95074.91
2022-12-19T02:31:31.788Z,95075.53
2022-12-19T02:34:41.400Z,95041.34
2022-12-19T02:37:18.191Z,95074.69
2022-12-19T02:40:01.925Z,95055.25
2022-12-19T02:42:32.229Z,95074.31
2022-12-19T02:45:05.940Z,95062.25
2022-12-19T02:47:34.260Z,95094.34
2022-12-19T02:50:03.014Z,95066.00
2022-12-19T02:52:30.325Z,95055.34
2022-12-19T02:55:06.524Z,95037.25
2022-12-19T02:57:59.272Z,95034.44
2022-12-19T03:00:28.567Z,95048.88
2022-12-19T03:03:16.708Z,95076.22
2022-12-19T03:05:55.840Z,95095.53
2022-12-19T03:08:35.300Z,95092.94
2022-12-19T03:11:13.335Z,95110.00
2022-12-19T03:14:02.221Z,95100.75
2022-12-19T03:16:29.210Z,95074.28
2022-12-19T03:18:57.451Z,95074.28
2022-12-19T03:21:31.460Z,95080.28
2022-12-19T03:23:59.205Z,95068.81
2022-12-19T03:26:30.160Z,95077.00
2022-12-19T03:29:05.363Z,95100.31
2022-12-19T03:31:33.940Z,95104.75
2022-12-19T03:34:13.830Z,95111.97
2022-12-19T03:36:45.376Z,95101.47
2022-12-19T03:39:14.413Z,95104.47
2022-12-19T03:42:03.111Z,95106.88
2022-12-19T03:44:34.461Z,95070.81
2022-12-19T03:47:13.019Z,95119.03
2022-12-19T03:49:40.303Z,95098.31
2022-12-19T03:52:20.886Z,95098.41
2022-12-19T03:55:00.775Z,95107.63
2022-12-19T03:57:39.802Z,95070.03
2022-12-19T04:00:11.195Z,95083.09
2022-12-19T04:02:49.963Z,95083.94
2022-12-19T04:05:23.358Z,95084.69
2022-12-19T04:07:53.566Z,95086.44
2022-12-19T04:10:24.173Z,95088.84
2022-12-19T04:12:59.225Z,95091.63
2022-12-19T04:15:49.512Z,95081.16
2022-12-19T04:18:18.805Z,95098.44
2022-12-19T04:20:52.755Z,95095.22
2022-12-19T04:23:27.255Z,95089.41
2022-12-19T04:26:00.433Z,95098.00
2022-12-19T04:28:34.773Z,95098.16
2022-12-19T04:31:02.675Z,95093.75
2022-12-19T04:33:29.535Z,95107.56
2022-12-19T04:35:56.255Z,95120.22
2022-12-19T04:38:23.094Z,95118.06
2022-12-19T04:40:49.775Z,95121.31
2022-12-19T04:43:16.455Z,95115.94
2022-12-19T04:45:43.221Z,95109.31
2022-12-19T04:48:10.117Z,95115.13
2022-12-19T04:50:36.830Z,95120.97
2022-12-19T04:53:03.629Z,95114.22
2022-12-19T04:55:30.272Z,95129.72
2022-12-19T04:57:56.991Z,95117.88
2022-12-19T05:00:23.657Z,95109.38
2022-12-19T05:02:50.609Z,95101.06
2022-12-19T05:05:18.893Z,95106.66
2022-12-19T05:07:47.044Z,95093.94
2022-12-19T05:10:13.923Z,95103.47
2022-12-19T05:12:40.584Z,95101.19
2022-12-19T05:15:07.779Z,95097.94
2022-12-19T05:17:34.471Z,95097.28
2022-12-19T05:20:01.187Z,95098.22
2022-12-19T05:22:28.010Z,95103.41
2022-12-19T05:24:54.732Z,95106.69
2022-12-19T05:27:21.513Z,95094.56
2022-12-19T05:29:48.187Z,95098.34
2022-12-19T05:32:14.823Z,95089.28
2022-12-19T05:34:41.509Z,95105.19
2022-12-19T05:37:08.179Z,95095.97
2022-12-19T05:39:35.160Z,95094.34
2022-12-19T05:42:01.825Z,95096.75
2022-12-19T05:44:28.511Z,95100.38
2022-12-19T05:46:55.171Z,95091.38
2022-12-19T05:49:21.829Z,95100.59
2022-12-19T05:51:49.075Z,95095.25
2022-12-19T05:54:15.879Z,95103.50
2022-12-19T05:56:42.546Z,95103.44
2022-12-19T05:59:09.266Z,95103.50
2022-12-19T06:01:36.006Z,95103.50
2022-12-19T06:04:04.055Z,95104.72
2022-12-19T06:06:30.689Z,95101.88
2022-12-19T06:08:58.950Z,95097.19
2022-12-19T06:11:27.120Z,95105.63
2022-12-19T06:13:54.062Z,95098.00
2022-12-19T06:16:22.605Z,95089.69
2022-12-19T06:18:49.506Z,95086.88
2022-12-19T06:21:18.527Z,95086.28
2022-12-19T06:23:45.663Z,95088.25
2022-12-19T06:26:19.121Z,95085.16
2022-12-19T06:28:47.498Z,95084.63
2022-12-19T06:31:15.188Z,95093.25
2022-12-19T06:33:42.088Z,95093.25
2022-12-19T06:36:16.408Z,95086.19
2022-12-19T06:38:43.080Z,95084.03
2022-12-19T06:41:29.695Z,95085.06
2022-12-19T06:44:00.448Z,95074.03
2022-12-19T06:46:27.469Z,95079.00
2022-12-19T06:48:54.376Z,95080.34
2022-12-19T06:51:21.207Z,95082.63
2022-12-19T06:53:48.262Z,95082.38
2022-12-19T06:56:16.188Z,95080.34
2022-12-19T06:58:43.222Z,95088.22
2022-12-19T07:01:21.158Z,95089.81
2022-12-19T07:03:49.273Z,95086.75
2022-12-19T07:06:16.199Z,95088.81
2022-12-19T07:08:43.149Z,95076.00
2022-12-19T07:11:10.645Z,95082.84
2022-12-19T07:13:37.343Z,95079.06
2022-12-19T07:16:05.535Z,95077.44
2022-12-19T07:18:36.068Z,95092.88
2022-12-19T07:21:03.517Z,95086.34
2022-12-19T07:23:30.413Z,95082.91
2022-12-19T07:25:57.977Z,95085.31
2022-12-19T07:28:24.984Z,95092.75
2022-12-19T07:30:51.625Z,95100.34
2022-12-19T07:33:21.661Z,95089.41
2022-12-19T07:35:48.695Z,95084.31
2022-12-19T07:38:15.544Z,95087.09
2022-12-19T07:40:42.198Z,95090.50
2022-12-19T07:43:08.895Z,95080.97
2022-12-19T07:45:38.451Z,95081.47
2022-12-19T07:48:07.209Z,95083.28
2022-12-19T07:50:34.220Z,95082.03
2022-12-19T07:53:01.171Z,95080.81
2022-12-19T07:55:28.256Z,95092.72
2022-12-19T07:57:55.687Z,95095.84
2022-12-19T08:00:23.186Z,95087.41
2022-12-19T08:02:49.972Z,95100.59
2022-12-19T08:05:17.009Z,95099.91
2022-12-19T08:07:43.676Z,95098.22
2022-12-19T08:10:12.566Z,95090.06
2022-12-19T08:12:39.601Z,95102.31
2022-12-19T08:15:07.459Z,95098.78
2022-12-19T08:17:35.312Z,95085.19
2022-12-19T08:20:02.043Z,95096.50
2022-12-19T08:22:31.910Z,95097.84
2022-12-19T08:24:58.593Z,95086.34
2022-12-19T08:27:26.061Z,95076.66
2022-12-19T08:29:53.134Z,95072.19
2022-12-19T08:32:21.428Z,95083.84
2022-12-19T08:34:49.023Z,95080.19
2022-12-19T08:37:15.732Z,95084.75
2022-12-19T08:39:42.419Z,95081.81
2022-12-19T08:42:09.121Z,95078.19
2022-12-19T08:44:35.803Z,95082.41
2022-12-19T08:47:02.760Z,95088.91
2022-12-19T08:49:29.647Z,95088.91
2022-12-19T08:51:56.345Z,95090.72
2022-12-19T08:54:23.119Z,95087.88
2022-12-19T08:56:50.038Z,95091.06
2022-12-19T08:59:23.976Z,95082.63
2022-12-19T09:01:57.580Z,95093.25
2022-12-19T09:05:57.510Z,95093.84
2022-12-19T09:07:11.089Z,95103.22
2022-12-19T09:09:37.813Z,95084.34
2022-12-19T09:12:04.506Z,95097.97
2022-12-19T09:14:35.070Z,95090.31
2022-12-19T09:17:01.813Z,95091.47
2022-12-19T09:19:31.773Z,95085.41
2022-12-19T09:21:58.442Z,95099.22
2022-12-19T09:24:25.214Z,95106.19
2022-12-19T09:26:51.956Z,95097.50
2022-12-19T09:29:20.328Z,95106.31
2022-12-19T09:31:56.519Z,95116.44
2022-12-19T09:34:36.770Z,95104.44
2022-12-19T09:37:15.886Z,95089.72
2022-12-19T09:39:48.202Z,95089.94
2022-12-19T09:42:17.964Z,95085.75
2022-12-19T09:45:05.638Z,95084.63
2022-12-19T09:47:35.825Z,95084.97
2022-12-19T09:50:03.086Z,95083.06
2022-12-19T09:52:47.604Z,95094.03
2022-12-19T09:55:23.976Z,95092.44
2022-12-19T09:57:53.848Z,95084.34
2022-12-19T10:00:22.469Z,95083.06
2022-12-19T10:03:02.418Z,95066.72
2022-12-19T10:07:09.439Z,95068.28
2022-12-19T10:08:45.680Z,95066.56
2022-12-19T10:12:44.384Z,95065.34
2022-12-19T10:14:47.176Z,95058.84
2022-12-19T10:17:34.581Z,95062.84
2022-12-19T10:20:23.658Z,95054.63
2022-12-19T10:23:11.649Z,95051.63
2022-12-19T10:26:13.716Z,95039.09
2022-12-19T10:29:12.271Z,95053.72
2022-12-19T10:32:11.121Z,95015.66
2022-12-19T10:34:41.814Z,95021.31
2022-12-19T10:37:32.744Z,95039.34
2022-12-19T10:40:15.991Z,95036.53
2022-12-19T10:42:56.937Z,95029.53
2022-12-19T10:45:30.927Z,95033.03
2022-12-19T10:47:58.451Z,95037.75
2022-12-19T10:50:27.715Z,95036.16
2022-12-19T10:52:56.833Z,95031.38
2022-12-19T10:55:47.668Z,95004.75
2022-12-19T10:58:21.753Z,94998.72
2022-12-19T11:01:05.851Z,95003.03
2022-12-19T11:03:34.537Z,95003.34
2022-12-19T11:06:03.235Z,95005.19
2022-12-19T11:08:38.921Z,95005.28
2022-12-19T11:14:37.832Z,95004.28
2022-12-19T11:17:44.993Z,94999.56
2022-12-19T11:22:07.356Z,95003.00
2022-12-19T11:29:30.477Z,95006.03
2022-12-19T11:29:33.695Z,95012.97
2022-12-19T11:29:35.025Z,95000.31
2022-12-19T11:30:44.318Z,95008.25
2022-12-19T11:33:28.121Z,94994.34
2022-12-19T11:35:58.524Z,95007.75
2022-12-19T11:38:52.974Z,94990.81
2022-12-19T11:41:28.751Z,94979.28
2022-12-19T11:44:02.193Z,94972.47
2022-12-19T11:46:38.687Z,94971.41
2022-12-19T11:49:23.542Z,94969.81
2022-12-19T11:52:02.931Z,94961.28
2022-12-19T11:55:06.382Z,94963.50
2022-12-19T11:57:33.298Z,94960.97
2022-12-19T12:00:05.003Z,94960.78
2022-12-19T12:02:50.919Z,94959.13
2022-12-19T12:05:35.678Z,94966.19
2022-12-19T12:09:41.866Z,94955.56
2022-12-19T12:17:19.506Z,94960.38
2022-12-19T12:24:15.023Z,94960.91
2022-12-19T12:30:14.651Z,94960.00
2022-12-19T12:31:21.173Z,94959.78
2022-12-19T12:31:46.811Z,94959.84
2022-12-19T12:31:50.062Z,94959.84
2022-12-19T12:31:50.447Z,94961.69
2022-12-19T12:35:48.783Z,94949.25
2022-12-19T12:38:51.440Z,94958.50
2022-12-19T12:41:47.394Z,94961.84
2022-12-19T12:44:15.290Z,94952.63
2022-12-19T12:47:06.821Z,94949.81
2022-12-19T12:50:00.469Z,94956.75
2022-12-19T12:52:36.085Z,94967.06
2022-12-19T12:55:06.174Z,94958.44
2022-12-19T12:57:37.067Z,94962.91
2022-12-19T13:00:16.548Z,94956.75
2022-12-19T13:02:47.664Z,94953.88
2022-12-19T13:05:35.891Z,94945.84
2022-12-19T13:08:22.973Z,94950.88
2022-12-19T13:10:55.698Z,94947.00
2022-12-19T13:13:56.297Z,94946.38
2022-12-19T13:16:45.480Z,94945.56
2022-12-19T13:19:27.939Z,94941.94
2022-12-19T13:22:04.983Z,94943.25
2022-12-19T13:24:39.227Z,94933.81
2022-12-19T13:27:21.238Z,94935.56
2022-12-19T13:30:07.312Z,94928.31
2022-12-19T13:32:54.125Z,94941.00
2022-12-19T13:36:24.464Z,94940.44
2022-12-19T13:39:55.643Z,94937.72
2022-12-19T13:41:48.185Z,94945.72
2022-12-19T13:44:19.707Z,94927.72
2022-12-19T13:46:46.867Z,94932.25
2022-12-19T13:49:19.933Z,94932.44
2022-12-19T13:51:55.150Z,94933.22
2022-12-19T13:54:34.793Z,94939.84
2022-12-19T13:57:09.272Z,94945.66
2022-12-19T13:59:39.925Z,94945.38
2022-12-19T14:02:25.738Z,94956.22
2022-12-19T14:04:52.629Z,94946.63
2022-12-19T14:07:24.940Z,94953.59
2022-12-19T14:11:33.720Z,94944.47
2022-12-19T14:13:52.961Z,94947.97
2022-12-19T14:15:55.229Z,94950.03
2022-12-19T14:18:42.935Z,94939.16
2022-12-19T14:22:03.706Z,94949.75
2022-12-19T14:24:10.274Z,94953.25
2022-12-19T14:28:26.678Z,94946.03
2022-12-19T14:29:45.451Z,94933.03
2022-12-19T14:33:45.484Z,94938.81
2022-12-19T14:36:07.809Z,94934.63
2022-12-19T14:39:21.050Z,94949.22
2022-12-19T14:41:07.891Z,94938.94
2022-12-19T14:43:57.772Z,94947.13
2022-12-19T14:54:08.027Z,94949.03
2022-12-19T14:54:17.437Z,94935.03
2022-12-19T14:54:44.435Z,94937.44
2022-12-19T14:56:16.169Z,94940.06
2022-12-19T14:58:52.656Z,94934.81
2022-12-19T15:01:33.158Z,94921.75
2022-12-19T15:04:51.788Z,94927.22
2022-12-19T15:07:07.550Z,94924.75
2022-12-19T15:11:05.089Z,94930.97
2022-12-19T15:14:46.547Z,94922.75
2022-12-19T15:16:01.612Z,94932.50
2022-12-19T15:18:42.671Z,94928.50
2022-12-19T15:21:14.610Z,94932.00
2022-12-19T15:23:44.310Z,94934.63
2022-12-19T15:26:35.343Z,94920.03
2022-12-19T15:29:06.959Z,94918.44
2022-12-19T15:31:42.527Z,94923.72
2022-12-19T15:34:34.201Z,94930.09
2022-12-19T15:37:02.818Z,94929.91
2022-12-19T15:39:30.311Z,94929.13
2022-12-19T15:42:00.585Z,94927.28
2022-12-19T15:44:34.013Z,94930.47
2022-12-19T15:47:02.443Z,94923.53
2022-12-19T15:49:29.240Z,94926.41
2022-12-19T15:51:55.945Z,94925.63
2022-12-19T15:54:48.012Z,94923.06
2022-12-19T15:57:19.809Z,94926.19
2022-12-19T15:59:46.736Z,94930.34
2022-12-19T16:02:27.846Z,94915.25
2022-12-19T16:05:03.498Z,94914.66
2022-12-19T16:07:30.873Z,94911.16
2022-12-19T16:09:57.625Z,94891.44
2022-12-19T16:12:38.715Z,94915.69
2022-12-19T16:15:13.578Z,94920.41
2022-12-19T16:17:40.407Z,94918.97
2022-12-19T16:20:17.101Z,94926.09
2022-12-19T16:22:44.069Z,94906.97
2022-12-19T16:25:12.831Z,94922.38
2022-12-19T16:27:40.236Z,94917.22
2022-12-19T16:30:20.969Z,94910.59
2022-12-19T16:32:49.027Z,94921.50
2022-12-19T16:35:28.978Z,94910.25
2022-12-19T16:38:06.017Z,94905.31
2022-12-19T16:40:33.164Z,94893.34
2022-12-19T16:43:13.899Z,94915.53
2022-12-19T16:45:40.699Z,94892.78
2022-12-19T16:48:22.544Z,94914.16
2022-12-19T16:50:50.047Z,94916.25
2022-12-19T16:53:17.390Z,94911.16
2022-12-19T16:55:45.818Z,94914.03
2022-12-19T16:58:20.291Z,94903.44
2022-12-19T17:00:48.116Z,94900.72
2022-12-19T17:03:37.269Z,94917.88
2022-12-19T17:06:04.437Z,94913.41
2022-12-19T17:08:32.453Z,94913.72
2022-12-19T17:10:59.424Z,94913.72
2022-12-19T17:13:26.720Z,94904.47
2022-12-19T17:15:57.167Z,94911.97
2022-12-19T17:18:34.723Z,94890.94
2022-12-19T17:21:01.774Z,94900.59
2022-12-19T17:23:30.522Z,94901.47
2022-12-19T17:25:57.962Z,94907.81
2022-12-19T17:28:24.676Z,94900.47
2022-12-19T17:30:54.529Z,94901.03
2022-12-19T17:33:23.799Z,94886.81
2022-12-19T17:35:50.557Z,94895.28
2022-12-19T17:38:17.823Z,94896.38
2022-12-19T17:40:45.435Z,94892.53
2022-12-19T17:43:12.879Z,94889.66
2022-12-19T17:45:40.522Z,94896.31
2022-12-19T17:48:19.293Z,94890.25
2022-12-19T17:50:46.013Z,94896.31
2022-12-19T17:53:14.445Z,94895.84
2022-12-19T17:55:41.535Z,94899.28
2022-12-19T17:58:12.432Z,94897.69
2022-12-19T18:00:40.095Z,94897.44
2022-12-19T18:03:18.613Z,94887.88
2022-12-19T18:05:45.504Z,94881.88
2022-12-19T18:08:45.175Z,94877.69
2022-12-19T18:11:23.677Z,94879.34
2022-12-19T18:13:51.688Z,94880.06
2022-12-19T18:16:24.684Z,94878.38
2022-12-19T18:18:51.572Z,94878.53
2022-12-19T18:21:21.246Z,94878.31
2022-12-19T18:23:48.874Z,94893.28
2022-12-19T18:26:15.592Z,94895.38
2022-12-19T18:28:42.555Z,94903.69
2022-12-19T18:31:25.565Z,94905.25
2022-12-19T18:33:54.475Z,94905.13
2022-12-19T18:36:24.023Z,94908.53
2022-12-19T18:38:51.688Z,94893.69
2022-12-19T18:41:19.857Z,94885.91
2022-12-19T18:43:47.017Z,94892.28
2022-12-19T18:46:16.340Z,94890.94
2022-12-19T18:48:45.017Z,94865.44
2022-12-19T18:51:17.233Z,94902.25
2022-12-19T18:53:45.334Z,94890.69
2022-12-19T18:56:12.060Z,94895.63
2022-12-19T18:58:38.818Z,94897.94
2022-12-19T19:01:11.394Z,94896.03
2022-12-19T19:03:40.956Z,94896.59
2022-12-19T19:06:19.858Z,94884.94
2022-12-19T19:08:46.783Z,94893.78
2022-12-19T19:11:26.055Z,94886.47
2022-12-19T19:13:53.502Z,94882.16
2022-12-19T19:16:25.358Z,94882.34
2022-12-19T19:18:54.270Z,94889.09
2022-12-19T19:21:24.662Z,94891.31
2022-12-19T19:24:15.109Z,94877.50
2022-12-19T19:26:41.765Z,94877.78
2022-12-19T19:29:09.791Z,94873.84
2022-12-19T19:31:39.425Z,94874.72
2022-12-19T19:34:13.444Z,94869.16
2022-12-19T19:36:44.737Z,94864.63
2022-12-19T19:39:11.777Z,94858.88
2022-12-19T19:41:38.389Z,94870.50
2022-12-19T19:44:05.094Z,94861.03
2022-12-19T19:46:32.582Z,94873.31
2022-12-19T19:48:59.459Z,94867.03
2022-12-19T19:51:28.832Z,94866.00
2022-12-19T19:53:56.150Z,94862.38
2022-12-19T19:56:22.852Z,94850.75
2022-12-19T19:58:49.633Z,94864.97
2022-12-19T20:01:16.464Z,94834.25
2022-12-19T20:03:44.874Z,94853.16
2022-12-19T20:06:12.545Z,94839.75
2022-12-19T20:08:40.647Z,94844.72
2022-12-19T20:11:10.695Z,94861.06
2022-12-19T20:13:38.438Z,94855.94
2022-12-19T20:16:11.339Z,94853.47
2022-12-19T20:18:40.060Z,94860.88
2022-12-19T20:21:13.493Z,94856.41
2022-12-19T20:23:42.853Z,94856.41
2022-12-19T20:26:11.472Z,94849.56
2022-12-19T20:28:45.622Z,94853.31
2022-12-19T20:31:14.934Z,94838.41
2022-12-19T20:33:41.775Z,94846.78
2022-12-19T20:36:10.721Z,94851.72
2022-12-19T20:38:38.249Z,94848.94
2022-12-19T20:41:05.246Z,94844.63
2022-12-19T20:43:32.180Z,94847.81
2022-12-19T20:46:07.214Z,94848.16
2022-12-19T20:48:34.141Z,94848.06
2022-12-19T20:51:02.745Z,94855.28
2022-12-19T20:53:29.377Z,94862.06
2022-12-19T20:55:58.914Z,94861.19
2022-12-19T20:58:27.618Z,94861.50
2022-12-19T21:00:56.185Z,94856.78
2022-12-19T21:03:29.174Z,94855.72
2022-12-19T21:05:57.097Z,94863.97
2022-12-19T21:08:25.448Z,94854.81
2022-12-19T21:10:53.094Z,94863.59
2022-12-19T21:13:21.931Z,94867.03
2022-12-19T21:16:09.792Z,94860.41
2022-12-19T21:18:38.116Z,94845.75
2022-12-19T21:21:06.412Z,94855.94
2022-12-19T21:23:33.275Z,94849.97
2022-12-19T21:26:01.781Z,94856.25
2022-12-19T21:28:29.084Z,94847.41
2022-12-19T21:31:12.112Z,94858.44
2022-12-19T21:33:38.787Z,94841.81
2022-12-19T21:36:10.721Z,94853.00
2022-12-19T21:38:38.037Z,94860.16
2022-12-19T21:41:06.712Z,94868.16
2022-12-19T21:43:34.864Z,94860.00
2022-12-19T21:46:06.925Z,94864.78
2022-12-19T21:48:38.576Z,94864.78
2022-12-19T21:51:06.757Z,94863.41
2022-12-19T21:53:34.144Z,94857.91
2022-12-19T21:56:03.841Z,94855.38
2022-12-19T21:58:30.933Z,94849.22
2022-12-19T22:01:08.297Z,94854.34
2022-12-19T22:03:36.031Z,94864.16
2022-12-19T22:06:03.162Z,94858.09
2022-12-19T22:08:30.038Z,94852.03
2022-12-19T22:10:56.792Z,94852.28
2022-12-19T22:13:23.615Z,94843.72
2022-12-19T22:15:52.584Z,94844.22
2022-12-19T22:18:19.714Z,94835.47
2022-12-19T22:20:46.600Z,94839.03
2022-12-19T22:23:13.786Z,94839.84
2022-12-19T22:25:41.246Z,94844.72
2022-12-19T22:28:08.261Z,94838.94
2022-12-19T22:30:35.838Z,94854.81
2022-12-19T22:33:04.565Z,94855.94
2022-12-19T22:35:33.888Z,94848.75
2022-12-19T22:38:00.557Z,94836.66
2022-12-19T22:40:27.450Z,94818.47
2022-12-19T22:42:54.136Z,94843.97
2022-12-19T22:45:20.838Z,94845.50
2022-12-19T22:47:47.463Z,94831.47
2022-12-19T22:50:14.402Z,94845.03
2022-12-19T22:52:41.154Z,94846.44
2022-12-19T22:55:08.501Z,94856.78
2022-12-19T22:57:35.171Z,94861.81
2022-12-19T23:00:01.982Z,94864.78
2022-12-19T23:02:28.778Z,94857.75
2022-12-19T23:04:55.618Z,94869.44
2022-12-19T23:07:22.499Z,94852.22
2022-12-19T23:09:49.291Z,94859.63
2022-12-19T23:12:15.933Z,94864.91
2022-12-19T23:14:42.659Z,94854.84
2022-12-19T23:17:09.416Z,94858.59
2022-12-19T23:19:36.265Z,94859.47
2022-12-19T23:22:03.316Z,94850.63
2022-12-19T23:24:30.436Z,94842.09
2022-12-19T23:26:57.190Z,94843.50
2022-12-19T23:29:24.002Z,94842.03
2022-12-19T23:31:50.703Z,94826.91
2022-12-19T23:34:17.563Z,94841.72
2022-12-19T23:37:10.096Z,94830.28
2022-12-19T23:39:31.727Z,94828.06
2022-12-19T23:41:58.581Z,94829.16
2022-12-19T23:44:25.507Z,94827.34
2022-12-19T23:46:52.164Z,94824.13
2022-12-19T23:49:18.829Z,94807.78
2022-12-19T23:51:45.571Z,94818.72
2022-12-19T23:54:12.435Z,94819.25
2022-12-19T23:56:39.512Z,94818.72
2022-12-19T23:59:06.401Z,94815.94
